createdAt,value
2022-12-01T00:00:00.158Z,102470
2022-12-01T00:01:00.249Z,102470
2022-12-01T00:02:00.366Z,102480
2022-12-01T00:03:00.300Z,102480
2022-12-01T00:04:00.153Z,102470
2022-12-01T00:05:00.186Z,102470
2022-12-01T00:06:01.491Z,102480
2022-12-01T00:07:00.155Z,102480
2022-12-01T00:08:00.449Z,102470
2022-12-01T00:09:00.166Z,102470
2022-12-01T00:10:00.156Z,102480
2022-12-01T00:11:04.373Z,102480
2022-12-01T00:12:00.188Z,102480
2022-12-01T00:13:01.472Z,102480
2022-12-01T00:14:00.315Z,102470
2022-12-01T00:15:00.161Z,102470
2022-12-01T00:16:10.135Z,102470
2022-12-01T00:17:00.275Z,102470
2022-12-01T00:18:00.710Z,102470
2022-12-01T00:19:00.272Z,102470
2022-12-01T00:20:00.176Z,102470
2022-12-01T00:21:00.175Z,102470
2022-12-01T00:22:00.183Z,102470
2022-12-01T00:23:00.354Z,102470
2022-12-01T00:24:00.175Z,102470
2022-12-01T00:25:00.174Z,102470
2022-12-01T00:26:02.733Z,102470
2022-12-01T00:27:00.173Z,102470
2022-12-01T00:28:00.188Z,102470
2022-12-01T00:29:00.191Z,102470
2022-12-01T00:30:00.175Z,102470
2022-12-01T00:31:00.185Z,102470
2022-12-01T00:32:00.198Z,102470
2022-12-01T00:33:00.183Z,102470
2022-12-01T00:34:00.425Z,102470
2022-12-01T00:35:00.324Z,102470
2022-12-01T00:36:00.186Z,102470
2022-12-01T00:37:00.146Z,102470
2022-12-01T00:38:00.165Z,102460
2022-12-01T00:39:00.179Z,102460
2022-12-01T00:40:00.554Z,102470
2022-12-01T00:41:00.355Z,102470
2022-12-01T00:42:00.170Z,102460
2022-12-01T00:43:00.144Z,102460
2022-12-01T00:44:00.156Z,102460
2022-12-01T00:45:00.248Z,102460
2022-12-01T00:46:00.258Z,102460
2022-12-01T00:47:00.180Z,102460
2022-12-01T00:48:00.153Z,102470
2022-12-01T00:49:00.207Z,102470
2022-12-01T00:50:00.186Z,102470
2022-12-01T00:51:00.389Z,102470
2022-12-01T00:52:00.172Z,102460
2022-12-01T00:53:00.179Z,102460
2022-12-01T00:54:00.195Z,102470
2022-12-01T00:55:00.152Z,102470
2022-12-01T00:56:00.177Z,102470
2022-12-01T00:57:00.152Z,102470
2022-12-01T00:58:00.201Z,102470
2022-12-01T00:59:00.153Z,102470
2022-12-01T01:00:00.180Z,102470
2022-12-01T01:01:01.033Z,102470
2022-12-01T01:02:00.802Z,102460
2022-12-01T01:03:00.417Z,102460
2022-12-01T01:04:00.186Z,102470
2022-12-01T01:05:00.166Z,102470
2022-12-01T01:06:04.554Z,102470
2022-12-01T01:07:00.189Z,102470
2022-12-01T01:08:00.261Z,102470
2022-12-01T01:09:00.172Z,102470
2022-12-01T01:10:00.288Z,102470
2022-12-01T01:11:00.230Z,102470
2022-12-01T01:12:00.197Z,102470
2022-12-01T01:13:00.155Z,102470
2022-12-01T01:14:00.183Z,102470
2022-12-01T01:15:00.962Z,102470
2022-12-01T01:16:02.793Z,102480
2022-12-01T01:17:00.294Z,102480
2022-12-01T01:18:00.216Z,102480
2022-12-01T01:19:00.157Z,102480
2022-12-01T01:20:00.194Z,102480
2022-12-01T01:21:02.382Z,102480
2022-12-01T01:22:00.161Z,102480
2022-12-01T01:23:00.176Z,102480
2022-12-01T01:24:00.300Z,102480
2022-12-01T01:25:00.224Z,102480
2022-12-01T01:26:01.843Z,102490
2022-12-01T01:27:00.157Z,102490
2022-12-01T01:28:00.215Z,102480
2022-12-01T01:29:01.304Z,102480
2022-12-01T01:30:00.192Z,102490
2022-12-01T01:31:03.798Z,102490
2022-12-01T01:32:00.178Z,102490
2022-12-01T01:33:00.178Z,102490
2022-12-01T01:34:00.182Z,102490
2022-12-01T01:35:00.146Z,102490
2022-12-01T01:36:00.731Z,102490
2022-12-01T01:37:00.158Z,102490
2022-12-01T01:38:00.189Z,102490
2022-12-01T01:39:00.211Z,102490
2022-12-01T01:40:00.199Z,102490
2022-12-01T01:41:00.403Z,102490
2022-12-01T01:42:00.181Z,102500
2022-12-01T01:43:00.179Z,102500
2022-12-01T01:44:00.998Z,102500
2022-12-01T01:45:00.179Z,102500
2022-12-01T01:46:00.220Z,102500
2022-12-01T01:47:00.170Z,102500
2022-12-01T01:48:00.216Z,102500
2022-12-01T01:49:01.099Z,102500
2022-12-01T01:50:01.506Z,102500
2022-12-01T01:51:00.655Z,102500
2022-12-01T01:52:02.019Z,102500
2022-12-01T01:53:01.750Z,102500
2022-12-01T01:54:02.745Z,102500
2022-12-01T01:55:00.206Z,102500
2022-12-01T01:56:01.608Z,102500
2022-12-01T01:57:00.656Z,102500
2022-12-01T01:58:01.507Z,102490
2022-12-01T01:59:00.296Z,102490
2022-12-01T02:00:03.150Z,102490
2022-12-01T02:01:00.232Z,102490
2022-12-01T02:02:04.250Z,102490
2022-12-01T02:03:01.264Z,102490
2022-12-01T02:04:00.156Z,102490
2022-12-01T02:05:01.405Z,102490
2022-12-01T02:06:04.776Z,102500
2022-12-01T02:07:00.280Z,102500
2022-12-01T02:08:00.856Z,102490
2022-12-01T02:09:00.190Z,102490
2022-12-01T02:10:00.237Z,102500
2022-12-01T02:11:03.447Z,102500
2022-12-01T02:12:07.108Z,102490
2022-12-01T02:13:00.197Z,102490
2022-12-01T02:14:07.779Z,102490
2022-12-01T02:15:03.412Z,102490
2022-12-01T02:16:01.203Z,102490
2022-12-01T02:17:10.021Z,102490
2022-12-01T02:18:09.764Z,102490
2022-12-01T02:19:10.096Z,102490
2022-12-01T02:20:10.116Z,102490
2022-12-01T02:21:10.126Z,102490
2022-12-01T02:22:01.180Z,102490
2022-12-01T02:23:10.090Z,102490
2022-12-01T02:24:10.139Z,102490
2022-12-01T02:25:10.155Z,102490
2022-12-01T02:26:10.127Z,102490
2022-12-01T02:27:05.583Z,102490
2022-12-01T02:28:10.124Z,102490
2022-12-01T02:29:10.124Z,102490
2022-12-01T02:30:01.189Z,102500
2022-12-01T02:31:05.147Z,102500
2022-12-01T02:32:01.256Z,102490
2022-12-01T02:33:06.884Z,102490
2022-12-01T02:34:07.300Z,102490
2022-12-01T02:35:00.136Z,102490
2022-12-01T02:36:00.175Z,102490
2022-12-01T02:37:07.057Z,102490
2022-12-01T02:38:10.091Z,102500
2022-12-01T02:39:06.702Z,102500
2022-12-01T02:40:03.403Z,102500
2022-12-01T02:41:04.276Z,102500
2022-12-01T02:42:03.228Z,102500
2022-12-01T02:43:10.109Z,102500
2022-12-01T02:44:10.108Z,102500
2022-12-01T02:45:02.733Z,102500
2022-12-01T02:46:10.180Z,102500
2022-12-01T02:47:10.101Z,102500
2022-12-01T02:48:01.115Z,102500
2022-12-01T02:49:03.142Z,102500
2022-12-01T02:50:00.944Z,102500
2022-12-01T02:51:05.231Z,102500
2022-12-01T02:52:01.370Z,102490
2022-12-01T02:53:02.043Z,102490
2022-12-01T02:54:01.661Z,102500
2022-12-01T02:55:00.150Z,102500
2022-12-01T02:56:00.309Z,102490
2022-12-01T02:57:00.201Z,102490
2022-12-01T02:58:00.158Z,102500
2022-12-01T02:59:00.179Z,102500
2022-12-01T03:00:00.913Z,102500
2022-12-01T03:01:06.485Z,102500
2022-12-01T03:02:10.150Z,102500
2022-12-01T03:03:10.116Z,102500
2022-12-01T03:04:00.160Z,102500
2022-12-01T03:05:07.163Z,102500
2022-12-01T03:06:10.110Z,102500
2022-12-01T03:07:10.086Z,102500
2022-12-01T03:08:10.164Z,102500
2022-12-01T03:09:01.152Z,102500
2022-12-01T03:10:10.087Z,102500
2022-12-01T03:11:00.730Z,102500
2022-12-01T03:12:03.437Z,102500
2022-12-01T03:13:10.112Z,102500
2022-12-01T03:14:10.089Z,102500
2022-12-01T03:15:04.288Z,102500
2022-12-01T03:16:10.170Z,102500
2022-12-01T03:17:03.572Z,102500
2022-12-01T03:18:08.596Z,102500
2022-12-01T03:19:07.949Z,102500
2022-12-01T03:20:06.006Z,102500
2022-12-01T03:21:06.629Z,102500
2022-12-01T03:22:00.130Z,102500
2022-12-01T03:23:04.829Z,102500
2022-12-01T03:24:02.795Z,102500
2022-12-01T03:25:01.294Z,102500
2022-12-01T03:26:02.667Z,102500
2022-12-01T03:27:01.149Z,102500
2022-12-01T03:28:20.705Z,102500
2022-12-01T03:29:04.107Z,102500
2022-12-01T03:30:01.412Z,102500
2022-12-01T03:31:04.107Z,102500
2022-12-01T03:32:03.555Z,102500
2022-12-01T03:33:02.577Z,102500
2022-12-01T03:34:03.984Z,102500
2022-12-01T03:35:03.636Z,102500
2022-12-01T03:36:10.116Z,102500
2022-12-01T03:37:02.962Z,102500
2022-12-01T03:38:04.584Z,102500
2022-12-01T03:39:03.714Z,102500
2022-12-01T03:40:01.973Z,102500
2022-12-01T03:41:02.351Z,102500
2022-12-01T03:42:08.790Z,102500
2022-12-01T03:43:03.283Z,102500
2022-12-01T03:44:06.878Z,102500
2022-12-01T03:45:03.814Z,102500
2022-12-01T03:46:10.187Z,102500
2022-12-01T03:47:02.735Z,102500
2022-12-01T03:48:00.364Z,102500
2022-12-01T03:49:00.155Z,102500
2022-12-01T03:50:00.632Z,102500
2022-12-01T03:51:05.535Z,102500
2022-12-01T03:52:08.488Z,102500
2022-12-01T03:53:00.151Z,102500
2022-12-01T03:54:00.129Z,102490
2022-12-01T03:55:07.809Z,102490
2022-12-01T03:56:01.936Z,102500
2022-12-01T03:57:04.176Z,102500
2022-12-01T03:58:07.158Z,102490
2022-12-01T03:59:02.008Z,102490
2022-12-01T04:00:00.524Z,102500
2022-12-01T04:01:02.112Z,102500
2022-12-01T04:02:00.519Z,102500
2022-12-01T04:03:01.450Z,102500
2022-12-01T04:04:10.114Z,102500
2022-12-01T04:05:00.156Z,102500
2022-12-01T04:06:00.336Z,102510
2022-12-01T04:07:00.147Z,102510
2022-12-01T04:08:00.579Z,102510
2022-12-01T04:09:00.185Z,102510
2022-12-01T04:10:00.217Z,102510
2022-12-01T04:11:00.176Z,102510
2022-12-01T04:12:00.182Z,102510
2022-12-01T04:13:00.175Z,102510
2022-12-01T04:14:00.147Z,102510
2022-12-01T04:15:01.878Z,102510
2022-12-01T04:16:00.246Z,102510
2022-12-01T04:17:00.181Z,102510
2022-12-01T04:18:00.176Z,102510
2022-12-01T04:19:00.183Z,102510
2022-12-01T04:20:00.359Z,102510
2022-12-01T04:21:00.179Z,102510
2022-12-01T04:22:00.176Z,102510
2022-12-01T04:23:00.147Z,102510
2022-12-01T04:24:00.176Z,102510
2022-12-01T04:25:00.157Z,102510
2022-12-01T04:26:01.430Z,102510
2022-12-01T04:27:00.176Z,102510
2022-12-01T04:28:00.156Z,102510
2022-12-01T04:29:01.042Z,102510
2022-12-01T04:30:00.194Z,102510
2022-12-01T04:31:00.289Z,102510
2022-12-01T04:32:00.183Z,102510
2022-12-01T04:33:00.155Z,102510
2022-12-01T04:34:00.270Z,102510
2022-12-01T04:35:00.174Z,102510
2022-12-01T04:36:00.160Z,102510
2022-12-01T04:37:00.178Z,102510
2022-12-01T04:38:00.161Z,102510
2022-12-01T04:39:00.658Z,102510
2022-12-01T04:40:00.155Z,102510
2022-12-01T04:41:00.148Z,102510
2022-12-01T04:42:00.275Z,102500
2022-12-01T04:43:00.154Z,102500
2022-12-01T04:44:00.187Z,102500
2022-12-01T04:45:00.324Z,102500
2022-12-01T04:46:00.172Z,102500
2022-12-01T04:47:00.242Z,102500
2022-12-01T04:48:00.172Z,102490
2022-12-01T04:49:00.176Z,102490
2022-12-01T04:50:00.183Z,102500
2022-12-01T04:51:00.679Z,102500
2022-12-01T04:52:00.202Z,102500
2022-12-01T04:53:00.145Z,102500
2022-12-01T04:54:00.450Z,102500
2022-12-01T04:55:00.149Z,102500
2022-12-01T04:56:00.486Z,102500
2022-12-01T04:57:00.169Z,102500
2022-12-01T04:58:00.177Z,102500
2022-12-01T04:59:00.173Z,102500
2022-12-01T05:00:00.156Z,102500
2022-12-01T05:01:01.325Z,102500
2022-12-01T05:02:00.215Z,102510
2022-12-01T05:03:00.172Z,102510
2022-12-01T05:04:00.249Z,102500
2022-12-01T05:05:00.171Z,102500
2022-12-01T05:06:01.027Z,102500
2022-12-01T05:07:00.144Z,102500
2022-12-01T05:08:00.310Z,102500
2022-12-01T05:09:00.446Z,102500
2022-12-01T05:10:00.215Z,102500
2022-12-01T05:11:01.017Z,102500
2022-12-01T05:12:00.147Z,102500
2022-12-01T05:13:00.161Z,102500
2022-12-01T05:14:00.197Z,102500
2022-12-01T05:15:00.176Z,102500
2022-12-01T05:16:09.060Z,102500
2022-12-01T05:17:00.153Z,102500
2022-12-01T05:18:00.145Z,102500
2022-12-01T05:19:01.505Z,102500
2022-12-01T05:20:00.155Z,102510
2022-12-01T05:21:00.604Z,102510
2022-12-01T05:22:00.185Z,102500
2022-12-01T05:23:05.650Z,102500
2022-12-01T05:24:00.150Z,102510
2022-12-01T05:25:00.173Z,102510
2022-12-01T05:26:00.274Z,102510
2022-12-01T05:27:00.173Z,102510
2022-12-01T05:28:00.192Z,102510
2022-12-01T05:29:00.337Z,102510
2022-12-01T05:30:00.159Z,102510
2022-12-01T05:31:00.446Z,102510
2022-12-01T05:32:00.338Z,102510
2022-12-01T05:33:00.216Z,102510
2022-12-01T05:34:00.208Z,102510
2022-12-01T05:35:00.151Z,102510
2022-12-01T05:36:00.219Z,102510
2022-12-01T05:37:00.172Z,102510
2022-12-01T05:38:06.050Z,102520
2022-12-01T05:39:00.150Z,102520
2022-12-01T05:40:00.779Z,102520
2022-12-01T05:41:00.195Z,102520
2022-12-01T05:42:00.173Z,102520
2022-12-01T05:43:00.180Z,102520
2022-12-01T05:44:00.192Z,102520
2022-12-01T05:45:00.164Z,102520
2022-12-01T05:46:00.641Z,102520
2022-12-01T05:47:00.185Z,102520
2022-12-01T05:48:00.699Z,102520
2022-12-01T05:49:00.176Z,102520
2022-12-01T05:50:05.279Z,102520
2022-12-01T05:51:06.601Z,102520
2022-12-01T05:52:00.179Z,102520
2022-12-01T05:53:00.145Z,102520
2022-12-01T05:54:00.349Z,102520
2022-12-01T05:55:00.472Z,102520
2022-12-01T05:56:00.153Z,102520
2022-12-01T05:57:00.169Z,102520
2022-12-01T05:58:00.637Z,102520
2022-12-01T05:59:00.277Z,102520
2022-12-01T06:00:00.241Z,102530
2022-12-01T06:01:00.459Z,102530
2022-12-01T06:02:00.186Z,102520
2022-12-01T06:03:00.177Z,102520
2022-12-01T06:04:00.272Z,102520
2022-12-01T06:05:00.186Z,102520
2022-12-01T06:06:00.273Z,102520
2022-12-01T06:07:00.156Z,102520
2022-12-01T06:08:00.353Z,102520
2022-12-01T06:09:00.174Z,102520
2022-12-01T06:10:00.511Z,102530
2022-12-01T06:11:00.330Z,102530
2022-12-01T06:12:00.187Z,102530
2022-12-01T06:13:00.157Z,102530
2022-12-01T06:14:00.179Z,102530
2022-12-01T06:15:00.148Z,102530
2022-12-01T06:16:01.770Z,102530
2022-12-01T06:17:00.282Z,102530
2022-12-01T06:18:00.428Z,102530
2022-12-01T06:19:00.180Z,102530
2022-12-01T06:20:00.313Z,102530
2022-12-01T06:21:00.418Z,102530
2022-12-01T06:22:00.288Z,102530
2022-12-01T06:23:00.172Z,102530
2022-12-01T06:24:00.171Z,102530
2022-12-01T06:25:00.183Z,102530
2022-12-01T06:26:00.225Z,102520
2022-12-01T06:27:00.171Z,102520
2022-12-01T06:28:00.154Z,102530
2022-12-01T06:29:00.266Z,102530
2022-12-01T06:30:00.158Z,102520
2022-12-01T06:31:03.513Z,102520
2022-12-01T06:32:00.283Z,102520
2022-12-01T06:33:00.177Z,102520
2022-12-01T06:34:00.182Z,102530
2022-12-01T06:35:00.154Z,102530
2022-12-01T06:36:01.282Z,102530
2022-12-01T06:37:00.185Z,102530
2022-12-01T06:38:00.417Z,102530
2022-12-01T06:39:00.172Z,102530
2022-12-01T06:40:00.153Z,102530
2022-12-01T06:41:00.227Z,102530
2022-12-01T06:42:00.185Z,102520
2022-12-01T06:43:00.626Z,102520
2022-12-01T06:44:00.388Z,102530
2022-12-01T06:45:00.196Z,102530
2022-12-01T06:46:02.573Z,102530
2022-12-01T06:47:00.197Z,102530
2022-12-01T06:48:00.175Z,102530
2022-12-01T06:49:00.160Z,102530
2022-12-01T06:50:00.222Z,102530
2022-12-01T06:51:00.547Z,102530
2022-12-01T06:52:01.199Z,102540
2022-12-01T06:53:00.148Z,102540
2022-12-01T06:54:05.246Z,102540
2022-12-01T06:55:00.165Z,102540
2022-12-01T06:56:00.862Z,102540
2022-12-01T06:57:00.151Z,102540
2022-12-01T06:58:00.216Z,102550
2022-12-01T06:59:00.186Z,102550
2022-12-01T07:00:00.163Z,102550
2022-12-01T07:01:06.207Z,102550
2022-12-01T07:02:00.245Z,102550
2022-12-01T07:03:00.262Z,102550
2022-12-01T07:04:00.177Z,102560
2022-12-01T07:05:00.210Z,102560
2022-12-01T07:06:00.622Z,102560
2022-12-01T07:07:00.178Z,102560
2022-12-01T07:08:00.270Z,102560
2022-12-01T07:09:00.187Z,102560
2022-12-01T07:10:00.172Z,102560
2022-12-01T07:11:01.447Z,102560
2022-12-01T07:12:00.155Z,102560
2022-12-01T07:13:00.176Z,102560
2022-12-01T07:14:00.148Z,102560
2022-12-01T07:15:00.243Z,102560
2022-12-01T07:16:00.992Z,102560
2022-12-01T07:17:00.327Z,102560
2022-12-01T07:18:00.178Z,102560
2022-12-01T07:19:00.163Z,102560
2022-12-01T07:20:00.192Z,102560
2022-12-01T07:21:02.711Z,102560
2022-12-01T07:22:00.165Z,102560
2022-12-01T07:23:00.186Z,102560
2022-12-01T07:24:00.151Z,102570
2022-12-01T07:25:00.149Z,102570
2022-12-01T07:26:01.493Z,102570
2022-12-01T07:27:00.181Z,102570
2022-12-01T07:28:00.175Z,102570
2022-12-01T07:29:00.152Z,102570
2022-12-01T07:30:00.227Z,102570
2022-12-01T07:31:01.257Z,102570
2022-12-01T07:32:00.206Z,102570
2022-12-01T07:33:00.171Z,102570
2022-12-01T07:34:00.149Z,102570
2022-12-01T07:35:00.160Z,102570
2022-12-01T07:36:00.498Z,102580
2022-12-01T07:37:00.178Z,102580
2022-12-01T07:38:00.151Z,102580
2022-12-01T07:39:03.672Z,102580
2022-12-01T07:40:00.171Z,102570
2022-12-01T07:41:01.056Z,102570
2022-12-01T07:42:00.187Z,102570
2022-12-01T07:43:00.176Z,102570
2022-12-01T07:44:00.371Z,102580
2022-12-01T07:45:00.215Z,102580
2022-12-01T07:46:08.873Z,102580
2022-12-01T07:47:00.180Z,102580
2022-12-01T07:48:00.179Z,102580
2022-12-01T07:49:00.163Z,102580
2022-12-01T07:50:00.209Z,102580
2022-12-01T07:51:00.694Z,102580
2022-12-01T07:52:00.181Z,102580
2022-12-01T07:53:00.185Z,102580
2022-12-01T07:54:01.186Z,102580
2022-12-01T07:55:00.155Z,102580
2022-12-01T07:56:03.166Z,102580
2022-12-01T07:57:00.152Z,102580
2022-12-01T07:58:00.149Z,102580
2022-12-01T07:59:00.184Z,102580
2022-12-01T08:00:00.214Z,102580
2022-12-01T08:01:04.655Z,102580
2022-12-01T08:02:00.404Z,102580
2022-12-01T08:03:00.245Z,102580
2022-12-01T08:04:00.155Z,102580
2022-12-01T08:05:00.180Z,102580
2022-12-01T08:06:00.672Z,102580
2022-12-01T08:07:00.190Z,102580
2022-12-01T08:08:00.362Z,102590
2022-12-01T08:09:00.180Z,102590
2022-12-01T08:10:00.191Z,102590
2022-12-01T08:11:00.928Z,102590
2022-12-01T08:12:00.151Z,102590
2022-12-01T08:13:00.159Z,102590
2022-12-01T08:14:00.172Z,102590
2022-12-01T08:15:00.203Z,102590
2022-12-01T08:16:04.121Z,102590
2022-12-01T08:17:00.427Z,102590
2022-12-01T08:18:00.171Z,102590
2022-12-01T08:19:00.163Z,102590
2022-12-01T08:20:00.187Z,102590
2022-12-01T08:21:00.180Z,102590
2022-12-01T08:22:00.152Z,102590
2022-12-01T08:23:00.627Z,102590
2022-12-01T08:24:00.155Z,102590
2022-12-01T08:25:00.167Z,102590
2022-12-01T08:26:00.905Z,102590
2022-12-01T08:27:00.147Z,102590
2022-12-01T08:28:00.443Z,102590
2022-12-01T08:29:00.182Z,102590
2022-12-01T08:30:00.497Z,102590
2022-12-01T08:31:05.980Z,102590
2022-12-01T08:32:00.206Z,102600
2022-12-01T08:33:00.178Z,102600
2022-12-01T08:34:00.223Z,102600
2022-12-01T08:35:00.193Z,102600
2022-12-01T08:36:00.716Z,102600
2022-12-01T08:37:00.177Z,102600
2022-12-01T08:38:00.150Z,102600
2022-12-01T08:39:00.202Z,102600
2022-12-01T08:40:00.159Z,102600
2022-12-01T08:41:00.919Z,102600
2022-12-01T08:42:00.172Z,102600
2022-12-01T08:43:00.190Z,102600
2022-12-01T08:44:01.310Z,102600
2022-12-01T08:45:00.267Z,102600
2022-12-01T08:46:00.814Z,102600
2022-12-01T08:47:00.262Z,102600
2022-12-01T08:48:00.159Z,102600
2022-12-01T08:49:00.839Z,102600
2022-12-01T08:50:00.199Z,102610
2022-12-01T08:51:01.290Z,102610
2022-12-01T08:52:00.153Z,102600
2022-12-01T08:53:00.171Z,102600
2022-12-01T08:54:00.355Z,102600
2022-12-01T08:55:00.687Z,102600
2022-12-01T08:56:01.314Z,102610
2022-12-01T08:57:00.165Z,102610
2022-12-01T08:58:00.186Z,102610
2022-12-01T08:59:00.185Z,102610
2022-12-01T09:00:00.176Z,102610
2022-12-01T09:01:00.925Z,102610
2022-12-01T09:02:05.357Z,102610
2022-12-01T09:03:00.245Z,102610
2022-12-01T09:04:00.984Z,102610
2022-12-01T09:05:00.215Z,102610
2022-12-01T09:06:01.493Z,102610
2022-12-01T09:07:00.184Z,102610
2022-12-01T09:08:00.322Z,102610
2022-12-01T09:09:00.173Z,102610
2022-12-01T09:10:00.154Z,102610
2022-12-01T09:11:01.620Z,102610
2022-12-01T09:12:00.149Z,102610
2022-12-01T09:13:00.176Z,102610
2022-12-01T09:14:00.199Z,102610
2022-12-01T09:15:00.182Z,102610
2022-12-01T09:16:02.106Z,102610
2022-12-01T09:17:00.193Z,102610
2022-12-01T09:18:00.183Z,102610
2022-12-01T09:19:00.526Z,102610
2022-12-01T09:20:00.160Z,102610
2022-12-01T09:21:07.984Z,102610
2022-12-01T09:22:00.175Z,102610
2022-12-01T09:23:00.152Z,102610
2022-12-01T09:24:00.793Z,102620
2022-12-01T09:25:00.197Z,102620
2022-12-01T09:26:00.150Z,102620
2022-12-01T09:27:00.185Z,102620
2022-12-01T09:28:00.175Z,102620
2022-12-01T09:29:02.705Z,102620
2022-12-01T09:30:00.155Z,102620
2022-12-01T09:31:03.996Z,102620
2022-12-01T09:32:00.570Z,102620
2022-12-01T09:33:00.240Z,102620
2022-12-01T09:34:01.662Z,102620
2022-12-01T09:35:00.153Z,102620
2022-12-01T09:36:00.725Z,102620
2022-12-01T09:37:00.273Z,102620
2022-12-01T09:38:00.165Z,102620
2022-12-01T09:39:00.753Z,102620
2022-12-01T09:40:00.180Z,102620
2022-12-01T09:41:03.099Z,102620
2022-12-01T09:42:08.810Z,102630
2022-12-01T09:43:02.269Z,102630
2022-12-01T09:44:00.160Z,102620
2022-12-01T09:45:01.277Z,102620
2022-12-01T09:46:01.968Z,102620
2022-12-01T09:47:10.236Z,102620
2022-12-01T09:48:01.609Z,102620
2022-12-01T09:49:01.766Z,102620
2022-12-01T09:50:04.119Z,102620
2022-12-01T09:51:00.253Z,102620
2022-12-01T09:52:00.229Z,102620
2022-12-01T09:53:02.186Z,102620
2022-12-01T09:54:00.722Z,102610
2022-12-01T09:55:00.477Z,102610
2022-12-01T09:56:06.064Z,102610
2022-12-01T09:57:00.179Z,102610
2022-12-01T09:58:01.516Z,102610
2022-12-01T09:59:01.543Z,102610
2022-12-01T10:00:02.165Z,102610
2022-12-01T10:01:00.318Z,102610
2022-12-01T10:02:01.337Z,102610
2022-12-01T10:04:04.839Z,102600
2022-12-01T10:05:02.211Z,102600
2022-12-01T10:06:27.312Z,102590
2022-12-01T10:07:03.356Z,102590
2022-12-01T10:08:02.987Z,102590
2022-12-01T10:09:03.434Z,102590
2022-12-01T10:10:01.918Z,102590
2022-12-01T10:11:05.467Z,102590
2022-12-01T10:12:05.636Z,102590
2022-12-01T10:13:00.370Z,102590
2022-12-01T10:14:00.578Z,102600
2022-12-01T10:15:10.123Z,102600
2022-12-01T10:16:07.579Z,102590
2022-12-01T10:17:10.110Z,102590
2022-12-01T10:18:10.120Z,102590
2022-12-01T10:19:06.647Z,102590
2022-12-01T10:20:05.329Z,102590
2022-12-01T10:21:03.435Z,102590
2022-12-01T10:22:10.090Z,102590
2022-12-01T10:23:10.114Z,102590
2022-12-01T10:24:00.138Z,102590
2022-12-01T10:25:05.723Z,102590
2022-12-01T10:26:10.119Z,102590
2022-12-01T10:27:10.087Z,102590
2022-12-01T10:28:06.388Z,102580
2022-12-01T10:29:06.439Z,102580
2022-12-01T10:30:05.391Z,102580
2022-12-01T10:31:07.043Z,102580
2022-12-01T10:32:03.615Z,102580
2022-12-01T10:33:04.684Z,102580
2022-12-01T10:34:02.997Z,102580
2022-12-01T10:35:00.294Z,102580
2022-12-01T10:36:00.418Z,102570
2022-12-01T10:37:00.222Z,102570
2022-12-01T10:38:02.536Z,102570
2022-12-01T10:39:01.193Z,102570
2022-12-01T10:40:01.079Z,102570
2022-12-01T10:42:05.270Z,102580
2022-12-01T10:43:00.726Z,102580
2022-12-01T10:44:02.037Z,102570
2022-12-01T10:45:01.989Z,102570
2022-12-01T10:46:04.444Z,102570
2022-12-01T10:47:01.022Z,102570
2022-12-01T10:48:10.098Z,102560
2022-12-01T10:49:06.557Z,102560
2022-12-01T10:50:01.980Z,102560
2022-12-01T10:51:10.088Z,102560
2022-12-01T10:52:00.257Z,102570
2022-12-01T10:53:00.293Z,102570
2022-12-01T10:54:06.068Z,102560
2022-12-01T10:55:00.441Z,102560
2022-12-01T10:56:03.430Z,102560
2022-12-01T10:57:00.475Z,102560
2022-12-01T10:58:07.781Z,102560
2022-12-01T10:59:03.882Z,102560
2022-12-01T11:00:03.050Z,102560
2022-12-01T11:01:02.830Z,102560
2022-12-01T11:02:01.013Z,102560
2022-12-01T11:03:01.313Z,102560
2022-12-01T11:04:10.087Z,102560
2022-12-01T11:05:01.757Z,102560
2022-12-01T11:06:02.010Z,102560
2022-12-01T11:07:00.505Z,102560
2022-12-01T11:08:00.301Z,102560
2022-12-01T11:09:01.416Z,102560
2022-12-01T11:10:03.277Z,102560
2022-12-01T11:11:00.423Z,102560
2022-12-01T11:12:01.418Z,102560
2022-12-01T11:13:10.116Z,102560
2022-12-01T11:14:01.794Z,102560
2022-12-01T11:15:00.642Z,102560
2022-12-01T11:16:03.008Z,102550
2022-12-01T11:17:10.089Z,102550
2022-12-01T11:18:01.910Z,102550
2022-12-01T11:19:10.138Z,102550
2022-12-01T11:20:10.180Z,102560
2022-12-01T11:21:05.667Z,102560
2022-12-01T11:22:01.497Z,102560
2022-12-01T11:23:10.090Z,102560
2022-12-01T11:24:00.191Z,102560
2022-12-01T11:25:01.406Z,102560
2022-12-01T11:26:04.107Z,102560
2022-12-01T11:27:00.203Z,102560
2022-12-01T11:28:01.044Z,102560
2022-12-01T11:29:02.274Z,102560
2022-12-01T11:30:03.432Z,102550
2022-12-01T11:31:08.832Z,102550
2022-12-01T11:32:01.252Z,102550
2022-12-01T11:33:02.011Z,102550
2022-12-01T11:34:00.334Z,102550
2022-12-01T11:35:03.759Z,102550
2022-12-01T11:36:00.279Z,102550
2022-12-01T11:37:02.160Z,102550
2022-12-01T11:39:00.818Z,102550
2022-12-01T11:40:10.127Z,102540
2022-12-01T11:41:00.179Z,102540
2022-12-01T11:42:01.996Z,102540
2022-12-01T11:43:01.643Z,102540
2022-12-01T11:44:02.194Z,102540
2022-12-01T11:45:03.481Z,102540
2022-12-01T11:46:03.313Z,102540
2022-12-01T11:47:22.545Z,102540
2022-12-01T11:48:03.308Z,102540
2022-12-01T11:49:00.385Z,102540
2022-12-01T11:50:02.300Z,102540
2022-12-01T11:51:10.113Z,102540
2022-12-01T11:52:10.113Z,102530
2022-12-01T11:53:00.673Z,102530
2022-12-01T11:54:10.114Z,102530
2022-12-01T11:55:10.339Z,102530
2022-12-01T11:56:10.088Z,102530
2022-12-01T11:57:31.749Z,102530
2022-12-01T11:58:01.800Z,102530
2022-12-01T11:59:03.007Z,102530
2022-12-01T12:00:00.367Z,102530
2022-12-01T12:01:00.268Z,102530
2022-12-01T12:02:10.161Z,102530
2022-12-01T12:03:03.459Z,102530
2022-12-01T12:04:10.124Z,102530
2022-12-01T12:05:00.160Z,102530
2022-12-01T12:06:31.990Z,102520
2022-12-01T12:07:08.492Z,102520
2022-12-01T12:08:00.194Z,102520
2022-12-01T12:09:00.258Z,102520
2022-12-01T12:10:10.117Z,102520
2022-12-01T12:11:10.173Z,102520
2022-12-01T12:12:10.095Z,102520
2022-12-01T12:13:10.132Z,102520
2022-12-01T12:14:01.146Z,102520
2022-12-01T12:15:10.114Z,102520
2022-12-01T12:16:10.117Z,102520
2022-12-01T12:17:10.090Z,102520
2022-12-01T12:18:00.258Z,102520
2022-12-01T12:19:10.099Z,102520
2022-12-01T12:20:10.510Z,102520
2022-12-01T12:21:08.976Z,102520
2022-12-01T12:22:10.092Z,102520
2022-12-01T12:23:10.119Z,102520
2022-12-01T12:24:00.136Z,102520
2022-12-01T12:25:10.101Z,102520
2022-12-01T12:26:07.525Z,102520
2022-12-01T12:27:07.824Z,102520
2022-12-01T12:28:03.415Z,102510
2022-12-01T12:29:00.131Z,102510
2022-12-01T12:30:08.407Z,102520
2022-12-01T12:31:00.215Z,102520